createdAt,value
2018-12-22T00:00:27.519Z,11.70
2018-12-22T00:02:55.992Z,11.70
2018-12-22T00:05:24.413Z,11.70
2018-12-22T00:07:52.874Z,11.70
2018-12-22T00:10:21.320Z,11.70
2018-12-22T00:12:49.749Z,11.70
2018-12-22T00:15:18.200Z,11.80
2018-12-22T00:17:46.601Z,11.80
2018-12-22T00:20:15.020Z,11.80
2018-12-22T00:22:43.496Z,11.80
2018-12-22T00:25:11.937Z,11.80
2018-12-22T00:27:40.360Z,11.80
2018-12-22T00:30:09.536Z,11.80
2018-12-22T00:32:38.008Z,11.80
2018-12-22T00:35:06.543Z,11.80
2018-12-22T00:37:34.967Z,11.80
2018-12-22T00:40:03.720Z,11.70
2018-12-22T00:42:32.189Z,11.70
2018-12-22T00:45:00.637Z,11.70
2018-12-22T00:47:29.063Z,11.70
2018-12-22T00:49:57.448Z,11.70
2018-12-22T00:52:32.371Z,11.60
2018-12-22T00:55:00.776Z,11.60
2018-12-22T00:57:29.202Z,11.60
2018-12-22T00:59:57.690Z,11.60
2018-12-22T01:02:26.197Z,11.60
2018-12-22T01:04:54.592Z,11.70
2018-12-22T01:07:23.079Z,11.70
2018-12-22T01:09:51.498Z,11.70
2018-12-22T01:12:20.025Z,11.70
2018-12-22T01:14:48.436Z,11.70
2018-12-22T01:17:16.836Z,11.70
2018-12-22T01:19:45.268Z,11.70
2018-12-22T01:22:13.699Z,11.60
2018-12-22T01:24:42.090Z,11.70
2018-12-22T01:27:10.491Z,11.70
2018-12-22T01:29:39.015Z,11.70
2018-12-22T01:32:07.492Z,11.70
2018-12-22T01:34:35.979Z,11.70
2018-12-22T01:37:04.529Z,11.70
2018-12-22T01:39:32.970Z,11.60
2018-12-22T01:42:01.412Z,11.60
2018-12-22T01:44:29.819Z,11.60
2018-12-22T01:46:58.238Z,11.60
2018-12-22T01:49:26.698Z,11.60
2018-12-22T01:51:55.255Z,11.60
2018-12-22T01:54:23.661Z,11.50
2018-12-22T01:56:52.081Z,11.50
2018-12-22T01:59:20.604Z,11.50
2018-12-22T02:01:49.007Z,11.40
2018-12-22T02:04:17.423Z,11.40
2018-12-22T02:06:45.813Z,11.40
2018-12-22T02:09:14.183Z,11.30
2018-12-22T02:11:42.713Z,11.30
2018-12-22T02:14:11.110Z,11.30
2018-12-22T02:16:39.508Z,11.30
2018-12-22T02:19:07.922Z,11.40
2018-12-22T02:21:36.665Z,11.40
2018-12-22T02:24:05.191Z,11.40
2018-12-22T02:26:33.597Z,11.40
2018-12-22T02:29:01.988Z,11.30
2018-12-22T02:31:30.382Z,11.40
2018-12-22T02:33:58.950Z,11.40
2018-12-22T02:36:27.343Z,11.40
2018-12-22T02:38:55.788Z,11.40
2018-12-22T02:41:24.211Z,11.40
2018-12-22T02:43:52.620Z,11.40
2018-12-22T02:46:21.008Z,11.40
2018-12-22T02:48:49.479Z,11.40
2018-12-22T02:51:17.877Z,11.40
2018-12-22T02:53:46.291Z,11.50
2018-12-22T02:56:14.679Z,11.50
2018-12-22T02:58:43.060Z,11.50
2018-12-22T03:01:11.525Z,11.50
2018-12-22T03:03:40.000Z,11.50
2018-12-22T03:06:08.368Z,11.40
2018-12-22T03:08:36.804Z,11.40
2018-12-22T03:11:05.292Z,11.50
2018-12-22T03:13:33.665Z,11.50
2018-12-22T03:16:02.073Z,11.50
2018-12-22T03:18:30.447Z,11.50
2018-12-22T03:20:58.835Z,11.50
2018-12-22T03:23:27.259Z,11.50
2018-12-22T03:25:55.671Z,11.50
2018-12-22T03:28:24.067Z,11.50
2018-12-22T03:30:52.538Z,11.50
2018-12-22T03:33:20.944Z,11.40
2018-12-22T03:35:49.333Z,11.40
2018-12-22T03:38:17.760Z,11.30
2018-12-22T03:40:46.196Z,11.30
2018-12-22T03:43:14.602Z,11.30
2018-12-22T03:45:43.012Z,11.40
2018-12-22T03:48:11.410Z,11.40
2018-12-22T03:50:39.841Z,11.40
2018-12-22T03:53:08.241Z,11.40
2018-12-22T03:55:36.629Z,11.40
2018-12-22T03:58:04.998Z,11.30
2018-12-22T04:00:33.441Z,11.30
2018-12-22T04:03:01.839Z,11.30
2018-12-22T04:05:30.219Z,11.20
2018-12-22T04:07:58.648Z,11.00
2018-12-22T04:10:27.062Z,10.90
2018-12-22T04:12:55.452Z,10.80
2018-12-22T04:15:23.872Z,10.70
2018-12-22T04:17:52.261Z,10.70
2018-12-22T04:20:20.655Z,10.60
2018-12-22T04:22:49.071Z,10.60
2018-12-22T04:25:17.479Z,10.60
2018-12-22T04:27:45.868Z,10.50
2018-12-22T04:30:14.625Z,10.50
2018-12-22T04:32:43.016Z,10.50
2018-12-22T04:35:11.450Z,10.40
2018-12-22T04:37:39.855Z,10.40
2018-12-22T04:40:08.252Z,10.30
2018-12-22T04:42:36.689Z,10.30
2018-12-22T04:45:05.512Z,10.30
2018-12-22T04:47:33.903Z,10.20
2018-12-22T04:50:02.291Z,10.10
2018-12-22T04:52:30.733Z,10.10
2018-12-22T04:54:59.147Z,10.10
2018-12-22T04:57:27.555Z,10.20
2018-12-22T04:59:55.940Z,10.10
2018-12-22T05:02:30.901Z,10.00
2018-12-22T05:04:59.287Z,10.00
2018-12-22T05:07:27.682Z,10.10
2018-12-22T05:09:56.097Z,10.20
2018-12-22T05:12:24.582Z,10.30
2018-12-22T05:14:52.998Z,10.30
2018-12-22T05:17:21.415Z,10.40
2018-12-22T05:19:49.823Z,10.50
2018-12-22T05:22:18.224Z,10.50
2018-12-22T05:24:46.640Z,10.50
2018-12-22T05:27:15.104Z,10.60
2018-12-22T05:29:51.565Z,10.60
2018-12-22T05:32:13.977Z,10.70
2018-12-22T05:34:42.475Z,10.70
2018-12-22T05:37:11.147Z,10.70
2018-12-22T05:39:39.559Z,10.80
2018-12-22T05:42:07.944Z,10.80
2018-12-22T05:44:36.356Z,10.80
2018-12-22T05:47:04.768Z,10.80
2018-12-22T05:49:33.232Z,10.70
2018-12-22T05:52:01.620Z,10.70
2018-12-22T05:54:30.034Z,10.80
2018-12-22T05:56:58.423Z,10.90
2018-12-22T05:59:26.825Z,10.90
2018-12-22T06:01:55.230Z,10.90
2018-12-22T06:04:23.606Z,10.90
2018-12-22T06:06:52.003Z,10.90
2018-12-22T06:09:20.415Z,10.80
2018-12-22T06:11:48.818Z,10.90
2018-12-22T06:14:17.235Z,10.90
2018-12-22T06:16:45.631Z,10.90
2018-12-22T06:19:14.019Z,10.90
2018-12-22T06:21:42.627Z,10.90
2018-12-22T06:24:11.011Z,11.00
2018-12-22T06:26:39.387Z,11.10
2018-12-22T06:29:07.796Z,11.10
2018-12-22T06:31:36.176Z,11.20
2018-12-22T06:34:04.755Z,11.20
2018-12-22T06:36:33.170Z,11.20
2018-12-22T06:39:01.551Z,11.10
2018-12-22T06:41:29.963Z,11.00
2018-12-22T06:43:58.396Z,10.80
2018-12-22T06:46:26.784Z,10.80
2018-12-22T06:48:55.159Z,10.80
2018-12-22T06:51:23.553Z,10.80
2018-12-22T06:53:51.966Z,10.90
2018-12-22T06:56:20.357Z,10.90
2018-12-22T06:58:48.795Z,10.90
2018-12-22T07:01:17.299Z,10.90
2018-12-22T07:03:45.898Z,10.90
2018-12-22T07:06:14.465Z,10.80
2018-12-22T07:08:42.970Z,10.80
2018-12-22T07:11:11.374Z,10.70
2018-12-22T07:13:39.896Z,10.70
2018-12-22T07:16:08.287Z,10.60
2018-12-22T07:18:36.669Z,10.60
2018-12-22T07:21:05.113Z,10.60
2018-12-22T07:23:33.521Z,10.60
2018-12-22T07:26:01.928Z,10.60
2018-12-22T07:28:30.355Z,10.60
2018-12-22T07:30:58.765Z,10.60
2018-12-22T07:33:27.158Z,10.60
2018-12-22T07:35:55.624Z,10.70
2018-12-22T07:38:24.012Z,10.70
2018-12-22T07:40:52.715Z,10.70
2018-12-22T07:43:21.132Z,10.70
2018-12-22T07:45:49.535Z,10.60
2018-12-22T07:48:17.916Z,10.60
2018-12-22T07:50:46.597Z,10.50
2018-12-22T07:53:15.038Z,10.50
2018-12-22T07:55:43.447Z,10.60
2018-12-22T07:58:11.866Z,10.60
2018-12-22T08:03:00.224Z,10.70
2018-12-22T08:05:28.648Z,10.70
2018-12-22T08:07:57.049Z,10.70
2018-12-22T08:10:25.547Z,10.70
2018-12-22T08:12:53.979Z,10.70
2018-12-22T08:15:22.418Z,10.70
2018-12-22T08:17:50.816Z,10.70
2018-12-22T08:20:19.329Z,10.70
2018-12-22T08:22:47.736Z,10.70
2018-12-22T08:25:16.204Z,10.70
2018-12-22T08:27:44.615Z,10.60
2018-12-22T08:30:13.019Z,10.60
2018-12-22T08:32:41.410Z,10.70
2018-12-22T08:35:09.825Z,10.70
2018-12-22T08:37:38.249Z,10.70
2018-12-22T08:40:08.721Z,10.80
2018-12-22T08:42:37.118Z,10.80
2018-12-22T08:45:06.578Z,10.80
2018-12-22T08:47:35.099Z,10.80
2018-12-22T08:50:09.027Z,10.80
2018-12-22T08:52:34.277Z,10.90
2018-12-22T08:55:02.682Z,10.90
2018-12-22T08:57:31.110Z,11.00
2018-12-22T08:59:59.515Z,11.00
2018-12-22T09:02:27.918Z,11.00
2018-12-22T09:04:56.298Z,11.10
2018-12-22T09:07:24.720Z,11.10
2018-12-22T09:09:53.103Z,11.10
2018-12-22T09:12:21.488Z,11.10
2018-12-22T09:14:49.904Z,11.10
2018-12-22T09:17:18.303Z,11.10
2018-12-22T09:19:46.697Z,11.10
2018-12-22T09:22:15.230Z,11.20
2018-12-22T09:24:43.641Z,11.10
2018-12-22T09:27:12.036Z,11.10
2018-12-22T09:29:40.468Z,11.10
2018-12-22T09:32:08.891Z,11.10
2018-12-22T09:34:37.347Z,11.10
2018-12-22T09:37:06.882Z,11.10
2018-12-22T09:39:35.646Z,11.10
2018-12-22T09:42:04.181Z,11.20
2018-12-22T09:44:32.636Z,11.20
2018-12-22T09:47:01.064Z,11.20
2018-12-22T09:49:29.508Z,11.20
2018-12-22T09:51:57.919Z,11.20
2018-12-22T17:11:14.031Z,9.70
2018-12-22T17:13:43.236Z,9.70
2018-12-22T17:16:11.644Z,9.70
2018-12-22T17:18:40.092Z,9.80
2018-12-22T17:21:27.230Z,9.80
2018-12-22T17:24:10.461Z,9.80
2018-12-22T17:26:41.803Z,9.80
2018-12-22T17:29:10.460Z,9.80
2018-12-22T17:31:40.488Z,9.80
2018-12-22T17:34:08.891Z,9.80
2018-12-22T17:36:37.459Z,9.80
2018-12-22T17:39:08.808Z,9.80
2018-12-22T17:41:37.245Z,9.80
2018-12-22T17:44:06.380Z,9.90
2018-12-22T17:46:34.788Z,9.90
2018-12-22T17:49:03.251Z,9.90
2018-12-22T17:51:31.714Z,10.00
2018-12-22T17:54:00.144Z,10.00
2018-12-22T17:56:28.581Z,10.00
2018-12-22T17:58:56.975Z,9.90
2018-12-22T18:01:25.399Z,9.90
2018-12-22T18:03:53.829Z,9.90
2018-12-22T18:06:22.212Z,9.90
2018-12-22T18:08:50.672Z,10.00
2018-12-22T18:11:19.096Z,10.00
2018-12-22T18:13:47.492Z,10.00
2018-12-22T18:16:15.907Z,10.00
2018-12-22T18:18:44.294Z,9.90
2018-12-22T18:21:12.817Z,10.00
2018-12-22T18:23:41.242Z,9.90
2018-12-22T18:26:09.642Z,9.80
2018-12-22T18:28:38.038Z,9.70
2018-12-22T18:31:06.448Z,9.60
2018-12-22T18:33:36.052Z,9.50
2018-12-22T18:36:04.854Z,9.50
2018-12-22T18:38:33.280Z,9.50
2018-12-22T18:41:01.704Z,9.50
2018-12-22T18:43:30.116Z,9.40
2018-12-22T18:45:58.531Z,9.40
2018-12-22T18:48:26.912Z,9.40
2018-12-22T18:50:55.403Z,9.40
2018-12-22T18:53:23.902Z,9.30
2018-12-22T18:55:52.421Z,9.20
2018-12-22T18:58:20.848Z,9.10
2018-12-22T19:00:49.260Z,9.10
2018-12-22T19:03:17.719Z,9.10
2018-12-22T19:05:46.188Z,9.10
2018-12-22T19:08:16.129Z,9.10
2018-12-22T19:10:52.947Z,9.10
2018-12-22T19:13:21.364Z,9.10
2018-12-22T19:15:49.788Z,9.00
2018-12-22T19:18:18.224Z,9.00
2018-12-22T19:20:49.782Z,9.00
2018-12-22T19:23:19.654Z,9.00
2018-12-22T19:25:48.121Z,9.00
2018-12-22T19:28:16.882Z,9.00
2018-12-22T19:30:45.424Z,8.90
2018-12-22T19:33:13.912Z,8.90
2018-12-22T19:35:42.331Z,8.80
2018-12-22T19:38:11.018Z,8.90
2018-12-22T19:40:39.421Z,8.80
2018-12-22T19:43:07.896Z,8.80
2018-12-22T19:45:36.336Z,8.80
2018-12-22T19:48:04.968Z,8.80
2018-12-22T19:50:33.467Z,8.80
2018-12-22T19:53:01.903Z,8.80
2018-12-22T19:55:30.348Z,8.80
2018-12-22T19:57:58.813Z,8.70
2018-12-22T20:00:27.253Z,8.70
2018-12-22T20:02:55.852Z,8.70
2018-12-22T20:05:24.440Z,8.60
2018-12-22T20:07:53.026Z,8.60
2018-12-22T20:10:21.437Z,8.60
2018-12-22T20:12:49.884Z,8.60
2018-12-22T20:15:18.568Z,8.60
2018-12-22T20:17:47.226Z,8.60
2018-12-22T20:20:15.744Z,8.60
2018-12-22T20:22:44.140Z,8.60
2018-12-22T20:25:12.548Z,8.60
2018-12-22T20:27:41.017Z,8.70
2018-12-22T20:30:09.477Z,8.70
2018-12-22T20:32:37.883Z,8.80
2018-12-22T20:35:06.312Z,8.90
2018-12-22T20:37:34.735Z,9.00
2018-12-22T20:40:03.296Z,9.00
2018-12-22T20:42:31.734Z,9.10
2018-12-22T20:45:00.208Z,9.20
2018-12-22T20:47:28.666Z,9.20
2018-12-22T20:49:57.109Z,9.20
2018-12-22T20:52:25.504Z,9.20
2018-12-22T20:54:53.931Z,9.20
2018-12-22T20:57:22.379Z,9.20
2018-12-22T20:59:50.802Z,9.10
2018-12-22T21:02:19.207Z,9.10
2018-12-22T21:04:47.772Z,9.10
2018-12-22T21:07:16.264Z,9.00
2018-12-22T21:09:44.740Z,8.90
2018-12-22T21:12:13.226Z,8.80
2018-12-22T21:14:41.931Z,8.70
2018-12-22T21:17:10.387Z,8.70
2018-12-22T21:19:38.812Z,8.60
2018-12-22T21:22:07.253Z,8.60
2018-12-22T21:24:35.692Z,8.50
2018-12-22T21:27:04.196Z,8.50
2018-12-22T21:29:32.721Z,8.40
2018-12-22T21:32:01.216Z,8.40
2018-12-22T21:34:29.629Z,8.40
2018-12-22T21:36:58.039Z,8.40
2018-12-22T21:39:26.470Z,8.40
2018-12-22T21:41:54.894Z,8.50
2018-12-22T21:44:23.425Z,8.60
2018-12-22T21:46:51.839Z,8.60
2018-12-22T21:49:20.291Z,8.70
2018-12-22T21:51:48.835Z,8.70
2018-12-22T21:54:17.877Z,8.80
2018-12-22T21:56:46.289Z,8.80
2018-12-22T21:59:14.768Z,8.80
2018-12-22T22:01:43.164Z,8.80
2018-12-22T22:04:11.624Z,8.90
2018-12-22T22:06:40.073Z,8.80
2018-12-22T22:09:08.493Z,8.80
2018-12-22T22:11:36.940Z,8.80
2018-12-22T22:14:05.393Z,8.80
2018-12-22T22:16:33.925Z,8.80
2018-12-22T22:19:02.421Z,8.90
2018-12-22T22:21:30.864Z,8.90
2018-12-22T22:23:59.333Z,9.00
2018-12-22T22:26:27.870Z,9.00
2018-12-22T22:28:56.292Z,9.00
2018-12-22T22:31:24.779Z,9.00
2018-12-22T22:33:53.267Z,9.00
2018-12-22T22:36:21.707Z,9.20
2018-12-22T22:38:50.114Z,9.10
2018-12-22T22:41:18.508Z,9.10
2018-12-22T22:43:46.968Z,9.10
2018-12-22T22:46:15.420Z,9.10
2018-12-22T22:48:43.839Z,9.10
2018-12-22T22:51:12.293Z,9.10
2018-12-22T22:53:40.715Z,9.10
2018-12-22T22:56:09.158Z,9.10
2018-12-22T22:58:37.623Z,9.10
2018-12-22T23:01:06.177Z,9.10
2018-12-22T23:03:34.812Z,9.20
2018-12-22T23:06:03.240Z,9.10
2018-12-22T23:08:31.653Z,9.00
2018-12-22T23:11:00.102Z,9.00
2018-12-22T23:13:28.508Z,8.90
2018-12-22T23:15:56.939Z,8.90
2018-12-22T23:18:25.337Z,8.80
2018-12-22T23:20:53.785Z,8.90
2018-12-22T23:23:22.188Z,8.90
2018-12-22T23:25:50.647Z,8.90
2018-12-22T23:28:19.183Z,8.90
2018-12-22T23:30:47.632Z,9.00
2018-12-22T23:33:16.072Z,9.00
2018-12-22T23:35:44.569Z,9.00
2018-12-22T23:38:13.010Z,9.10
2018-12-22T23:40:41.460Z,9.10
2018-12-22T23:43:09.982Z,9.10
2018-12-22T23:45:38.421Z,9.10
2018-12-22T23:48:06.833Z,9.10
2018-12-22T23:50:35.240Z,9.00
2018-12-22T23:53:03.792Z,9.00
2018-12-22T23:55:32.216Z,9.00
2018-12-22T23:58:00.649Z,9.00
